LRSB - SIBIU

Compiled: 21:31:54 on 19/01/2018

Latest METAR/SPECI Reports

METAR LRSB 192130Z VRB01KT 3500 -RA BR FEW007 SCT015 BKN030 01/M00 Q1010 R27/29//95=

Previous reports

METAR LRSB 192100Z 00000KT 4500 -RA BR FEW006 SCT030 01/M00 Q1010 R27/29//95=
METAR LRSB 192030Z VRB01KT 5000 -RA BR SCT030 SCT040 01/M00 Q1010 R27/29//95=
METAR LRSB 192000Z 26003KT 5000 -RA BR BKN028 SCT040 01/M00 Q1010 R27/29//95=
METAR LRSB 191930Z 31002KT 5000 -RA BR SCT030 SCT042 01/M00 Q1010 R27/29//95=

Latest TAF report

TAF LRSB 191700Z 1918/2018 VRB04KT 9999 BKN050 BECMG 1918/1920 5000 -RASN BR BKN015 OVC030 PROB40 TEMPO 1920/1923 3000 -FZRA BKN010 OVC025 BECMG 1923/2001 5000 -SN BR BKN010 OVC025 TEMPO 2003/2015 3000 SN BR BKN005 OVC025=

Valid WARNINGS

No valid warnings for LRSB